createdAt,value
2023-03-11T00:00:34.303Z,3.13
2023-03-11T00:01:33.297Z,3.20
2023-03-11T00:02:33.280Z,3.15
2023-03-11T00:03:33.288Z,3.21
2023-03-11T00:04:33.267Z,3.18
2023-03-11T00:05:33.289Z,3.21
2023-03-11T00:06:33.263Z,3.21
2023-03-11T00:07:33.222Z,3.06
2023-03-11T00:08:33.231Z,3.10
2023-03-11T00:09:33.203Z,3.11
2023-03-11T00:10:33.193Z,3.03
2023-03-11T00:11:33.200Z,3.15
2023-03-11T00:12:33.182Z,3.18
2023-03-11T00:13:33.197Z,3.28
2023-03-11T00:14:33.158Z,3.24
2023-03-11T00:15:33.180Z,3.21
2023-03-11T00:16:33.185Z,3.23
2023-03-11T00:17:33.141Z,3.24
2023-03-11T00:18:33.144Z,3.23
2023-03-11T00:19:33.110Z,3.36
2023-03-11T00:20:33.100Z,3.36
2023-03-11T00:21:33.085Z,3.33
2023-03-11T00:22:33.110Z,3.32
2023-03-11T00:23:33.079Z,3.23
2023-03-11T00:24:33.085Z,3.15
2023-03-11T00:25:33.047Z,3.28
2023-03-11T00:26:33.040Z,3.20
2023-03-11T00:27:33.066Z,3.29
2023-03-11T00:28:34.376Z,3.23
2023-03-11T00:29:34.021Z,3.24
2023-03-11T00:30:33.040Z,3.24
2023-03-11T00:31:33.003Z,3.40
2023-03-11T00:32:33.062Z,3.23
2023-03-11T00:33:32.991Z,3.29
2023-03-11T00:34:32.968Z,3.36
2023-03-11T00:35:33.008Z,3.33
2023-03-11T00:36:32.943Z,3.36
2023-03-11T00:37:32.936Z,3.40
2023-03-11T00:38:32.990Z,3.31
2023-03-11T00:39:32.921Z,3.24
2023-03-11T00:40:32.908Z,3.32
2023-03-11T00:41:32.894Z,3.24
2023-03-11T00:42:32.887Z,3.32
2023-03-11T00:43:32.893Z,3.31
2023-03-11T00:44:32.868Z,3.32
2023-03-11T00:45:32.850Z,3.31
2023-03-11T00:46:32.882Z,3.36
2023-03-11T00:47:32.827Z,3.29
2023-03-11T00:48:32.843Z,3.31
2023-03-11T00:49:32.809Z,3.15
2023-03-11T00:50:32.819Z,3.10
2023-03-11T00:51:34.262Z,3.17
2023-03-11T00:52:33.795Z,3.17
2023-03-11T00:53:32.780Z,3.23
2023-03-11T00:54:32.765Z,3.24
2023-03-11T00:55:32.789Z,3.29
2023-03-11T00:56:32.746Z,3.24
2023-03-11T00:57:32.734Z,3.21
2023-03-11T00:58:32.715Z,3.29
2023-03-11T00:59:32.708Z,3.43
2023-03-11T01:00:32.733Z,3.40
2023-03-11T01:01:32.752Z,3.28
2023-03-11T01:02:32.690Z,3.26
2023-03-11T01:03:32.694Z,3.39
2023-03-11T01:04:32.731Z,3.17
2023-03-11T01:05:32.652Z,3.28
2023-03-11T01:06:44.457Z,3.14
2023-03-11T01:07:34.641Z,3.17
2023-03-11T01:08:32.629Z,3.29
2023-03-11T01:09:32.604Z,3.26
2023-03-11T01:10:32.626Z,3.26
2023-03-11T01:11:32.600Z,3.15
2023-03-11T01:12:32.609Z,3.15
2023-03-11T01:13:32.594Z,3.15
2023-03-11T01:14:32.573Z,3.13
2023-03-11T01:15:32.629Z,3.20
2023-03-11T01:16:32.524Z,3.23
2023-03-11T01:17:32.534Z,3.26
2023-03-11T01:18:32.529Z,3.28
2023-03-11T01:19:32.518Z,3.20
2023-03-11T01:20:32.521Z,3.23
2023-03-11T01:21:32.497Z,3.15
2023-03-11T01:22:32.477Z,3.20
2023-03-11T01:23:32.498Z,3.21
2023-03-11T01:24:32.486Z,3.20
2023-03-11T01:25:32.446Z,3.21
2023-03-11T01:26:32.451Z,3.21
2023-03-11T01:27:32.469Z,3.13
2023-03-11T01:28:32.425Z,3.18
2023-03-11T01:29:32.419Z,3.20
2023-03-11T01:30:32.427Z,3.23
2023-03-11T01:31:32.393Z,3.33
2023-03-11T01:32:32.478Z,3.14
2023-03-11T01:34:04.279Z,3.15
2023-03-11T01:34:32.363Z,3.17
2023-03-11T01:35:32.425Z,3.18
2023-03-11T01:36:32.390Z,3.17
2023-03-11T01:37:32.335Z,3.23
2023-03-11T01:38:32.333Z,3.23
2023-03-11T01:39:32.324Z,3.17
2023-03-11T01:40:32.318Z,3.20
2023-03-11T01:41:32.337Z,3.26
2023-03-11T01:42:32.313Z,3.26
2023-03-11T01:43:32.283Z,3.29
2023-03-11T01:44:32.269Z,3.15
2023-03-11T01:45:32.253Z,3.24
2023-03-11T01:46:32.315Z,3.24
2023-03-11T01:47:32.227Z,3.14
2023-03-11T01:48:32.233Z,3.06
2023-03-11T01:49:32.242Z,3.14
2023-03-11T01:50:32.210Z,3.17
2023-03-11T01:51:32.192Z,3.20
2023-03-11T01:52:32.205Z,3.21
2023-03-11T01:53:32.203Z,3.26
2023-03-11T01:54:32.174Z,3.14
2023-03-11T01:55:32.161Z,3.18
2023-03-11T01:56:32.151Z,3.11
2023-03-11T01:57:32.139Z,3.08
2023-03-11T01:58:32.146Z,3.11
2023-03-11T01:59:32.131Z,3.10
2023-03-11T02:00:32.116Z,3.23
2023-03-11T02:01:32.146Z,3.23
2023-03-11T02:02:32.109Z,3.21
2023-03-11T02:03:32.110Z,3.20
2023-03-11T02:04:32.087Z,3.05
2023-03-11T02:05:32.074Z,3.18
2023-03-11T02:06:32.043Z,3.21
2023-03-11T02:07:32.040Z,3.28
2023-03-11T02:08:32.031Z,3.29
2023-03-11T02:09:32.051Z,3.28
2023-03-11T02:10:32.006Z,3.28
2023-03-11T02:11:31.998Z,3.28
2023-03-11T02:12:32.002Z,3.13
2023-03-11T02:13:31.987Z,3.14
2023-03-11T02:14:32.006Z,3.20
2023-03-11T02:15:31.964Z,3.17
2023-03-11T02:16:32.010Z,3.26
2023-03-11T02:17:31.938Z,3.23
2023-03-11T02:18:31.949Z,3.17
2023-03-11T02:19:31.927Z,2.97
2023-03-11T02:20:31.920Z,2.97
2023-03-11T02:21:31.933Z,2.84
2023-03-11T02:22:31.900Z,2.75
2023-03-11T02:23:31.900Z,2.56
2023-03-11T02:24:31.876Z,2.61
2023-03-11T02:25:31.869Z,2.60
2023-03-11T02:26:31.865Z,2.57
2023-03-11T02:27:31.863Z,2.71
2023-03-11T02:28:31.855Z,2.66
2023-03-11T02:29:31.835Z,2.75
2023-03-11T02:30:31.844Z,2.81
2023-03-11T02:31:31.891Z,2.84
2023-03-11T02:32:31.849Z,2.82
2023-03-11T02:33:31.796Z,2.79
2023-03-11T02:34:31.804Z,2.84
2023-03-11T02:35:31.809Z,2.85
2023-03-11T02:36:31.780Z,2.77
2023-03-11T02:37:31.761Z,2.75
2023-03-11T02:38:31.752Z,2.84
2023-03-11T02:39:31.781Z,2.95
2023-03-11T02:40:31.739Z,3.03
2023-03-11T02:41:31.720Z,2.99
2023-03-11T02:42:31.702Z,2.87
2023-03-11T02:43:31.701Z,2.95
2023-03-11T02:44:31.685Z,2.89
2023-03-11T02:45:31.695Z,2.82
2023-03-11T02:46:31.756Z,2.64
2023-03-11T02:47:31.657Z,2.74
2023-03-11T02:48:31.651Z,2.74
2023-03-11T02:49:31.672Z,2.74
2023-03-11T02:50:31.639Z,2.69
2023-03-11T02:51:31.604Z,2.69
2023-03-11T02:52:31.594Z,2.59
2023-03-11T02:53:31.621Z,2.63
2023-03-11T02:54:31.580Z,2.67
2023-03-11T02:55:31.586Z,2.77
2023-03-11T02:56:31.547Z,2.75
2023-03-11T02:57:31.561Z,2.81
2023-03-11T02:58:31.562Z,2.84
2023-03-11T02:59:31.548Z,2.67
2023-03-11T03:00:31.589Z,2.66
2023-03-11T03:01:31.504Z,2.60
2023-03-11T03:02:31.502Z,2.61
2023-03-11T03:03:31.532Z,2.63
2023-03-11T03:04:31.576Z,2.61
2023-03-11T03:05:31.472Z,2.77
2023-03-11T03:06:31.466Z,2.79
2023-03-11T03:07:31.471Z,2.79
2023-03-11T03:08:31.460Z,2.78
2023-03-11T03:09:31.432Z,2.81
2023-03-11T03:10:31.420Z,2.84
2023-03-11T03:11:31.436Z,2.89
2023-03-11T03:12:31.399Z,2.89
2023-03-11T03:13:31.380Z,2.93
2023-03-11T03:14:32.381Z,2.89
2023-03-11T03:15:31.374Z,2.87
2023-03-11T03:16:31.424Z,2.99
2023-03-11T03:17:31.385Z,2.92
2023-03-11T03:18:31.346Z,2.84
2023-03-11T03:19:31.359Z,2.77
2023-03-11T03:20:31.319Z,2.72
2023-03-11T03:21:31.358Z,2.72
2023-03-11T03:22:31.300Z,2.74
2023-03-11T03:23:31.333Z,2.69
2023-03-11T03:24:31.297Z,2.56
2023-03-11T03:25:31.296Z,2.67
2023-03-11T03:26:31.289Z,2.60
2023-03-11T03:27:31.257Z,2.52
2023-03-11T03:28:31.258Z,2.49
2023-03-11T03:29:31.244Z,2.52
2023-03-11T03:30:31.236Z,2.39
2023-03-11T03:31:31.324Z,2.48
2023-03-11T03:32:31.295Z,2.59
2023-03-11T03:33:31.233Z,2.56
2023-03-11T03:34:31.187Z,2.54
2023-03-11T03:35:31.247Z,2.57
2023-03-11T03:36:31.182Z,2.56
2023-03-11T03:37:31.162Z,2.56
2023-03-11T03:38:31.142Z,2.61
2023-03-11T03:39:31.134Z,2.61
2023-03-11T03:40:31.123Z,2.56
2023-03-11T03:41:31.112Z,2.43
2023-03-11T03:42:31.118Z,2.46
2023-03-11T03:43:31.095Z,2.57
2023-03-11T03:44:31.093Z,2.41
2023-03-11T03:45:31.071Z,2.49
2023-03-11T03:46:31.060Z,2.57
2023-03-11T03:47:31.073Z,2.66
2023-03-11T03:48:31.059Z,2.60
2023-03-11T03:49:31.055Z,2.69
2023-03-11T03:50:31.024Z,2.67
2023-03-11T03:51:31.012Z,2.56
2023-03-11T03:52:31.008Z,2.57
2023-03-11T03:53:30.999Z,2.59
2023-03-11T03:54:31.012Z,2.59
2023-03-11T03:55:30.975Z,2.57
2023-03-11T03:56:30.967Z,2.63
2023-03-11T03:57:30.959Z,2.57
2023-03-11T03:58:30.933Z,2.67
2023-03-11T03:59:30.943Z,2.64
2023-03-11T04:00:30.961Z,2.64
2023-03-11T04:01:30.912Z,2.66
2023-03-11T04:02:30.997Z,2.57
2023-03-11T04:03:30.989Z,2.66
2023-03-11T04:04:30.902Z,2.64
2023-03-11T04:05:30.912Z,2.61
2023-03-11T04:06:30.883Z,2.57
2023-03-11T04:07:30.888Z,2.67
2023-03-11T04:08:30.864Z,2.60
2023-03-11T04:09:30.830Z,2.63
2023-03-11T04:10:30.837Z,2.61
2023-03-11T04:11:30.820Z,2.59
2023-03-11T04:12:30.857Z,2.61
2023-03-11T04:13:30.800Z,2.63
2023-03-11T04:14:30.811Z,2.71
2023-03-11T04:15:30.785Z,2.61
2023-03-11T04:16:30.858Z,2.69
2023-03-11T04:17:30.800Z,2.69
2023-03-11T04:18:30.776Z,2.81
2023-03-11T04:19:31.754Z,2.77
2023-03-11T04:20:30.736Z,2.75
2023-03-11T04:21:31.725Z,2.78
2023-03-11T04:22:30.722Z,2.81
2023-03-11T04:23:30.726Z,2.82
2023-03-11T04:24:30.711Z,2.81
2023-03-11T04:25:30.687Z,2.57
2023-03-11T04:26:30.712Z,2.69
2023-03-11T04:27:30.659Z,2.60
2023-03-11T04:28:30.664Z,2.61
2023-03-11T04:29:30.647Z,2.64
2023-03-11T04:30:30.624Z,2.63
2023-03-11T04:31:30.680Z,2.52
2023-03-11T04:32:30.730Z,2.57
2023-03-11T04:33:30.612Z,2.69
2023-03-11T04:34:30.595Z,2.77
2023-03-11T04:35:30.600Z,2.63
2023-03-11T04:36:30.595Z,2.61
2023-03-11T04:37:30.608Z,2.56
2023-03-11T04:38:30.556Z,2.54
2023-03-11T04:39:30.553Z,2.49
2023-03-11T04:40:30.554Z,2.48
2023-03-11T04:41:30.528Z,2.57
2023-03-11T04:42:30.542Z,2.49
2023-03-11T04:43:30.512Z,2.57
2023-03-11T04:44:30.497Z,2.57
2023-03-11T04:45:30.501Z,2.77
2023-03-11T04:46:30.542Z,2.79
2023-03-11T04:47:30.486Z,2.87
2023-03-11T04:48:30.463Z,2.82
2023-03-11T04:49:30.440Z,2.82
2023-03-11T04:50:30.447Z,2.89
2023-03-11T04:51:30.461Z,2.81
2023-03-11T04:52:30.421Z,2.66
2023-03-11T04:53:30.403Z,2.67
2023-03-11T04:54:30.395Z,2.59
2023-03-11T04:55:30.385Z,2.72
2023-03-11T04:56:30.391Z,2.66
2023-03-11T04:57:30.394Z,2.67
2023-03-11T04:58:31.352Z,2.61
2023-03-11T04:59:30.344Z,2.67
2023-03-11T05:00:30.330Z,2.60
2023-03-11T05:01:30.393Z,2.61
2023-03-11T05:02:30.333Z,2.61
2023-03-11T05:03:30.418Z,2.63
2023-03-11T05:04:30.313Z,2.72
2023-03-11T05:05:30.284Z,2.61
2023-03-11T05:06:30.288Z,2.57
2023-03-11T05:07:30.296Z,2.53
2023-03-11T05:08:30.254Z,2.43
2023-03-11T05:09:30.252Z,2.42
2023-03-11T05:10:31.885Z,2.38
2023-03-11T05:11:31.248Z,2.48
2023-03-11T05:12:30.218Z,2.24
2023-03-11T05:13:30.213Z,2.20
2023-03-11T05:14:30.229Z,2.23
2023-03-11T05:15:30.190Z,2.21
2023-03-11T05:16:30.195Z,2.23
2023-03-11T05:17:30.172Z,2.31
2023-03-11T05:18:30.166Z,2.30
2023-03-11T05:19:30.166Z,2.31
2023-03-11T05:20:30.154Z,2.35
2023-03-11T05:21:30.140Z,2.41
2023-03-11T05:22:31.148Z,2.42
2023-03-11T05:23:30.119Z,2.48
2023-03-11T05:24:30.099Z,2.54
2023-03-11T05:25:30.092Z,2.46
2023-03-11T05:26:30.098Z,2.53
2023-03-11T05:27:30.084Z,2.46
2023-03-11T05:28:30.090Z,2.39
2023-03-11T05:29:30.069Z,2.52
2023-03-11T05:30:30.041Z,2.54
2023-03-11T05:31:30.091Z,2.42
2023-03-11T05:32:30.081Z,2.54
2023-03-11T05:33:30.036Z,2.45
2023-03-11T05:34:30.016Z,2.54
2023-03-11T05:35:30.028Z,2.57
2023-03-11T05:36:29.992Z,2.56
2023-03-11T05:37:29.979Z,2.59
2023-03-11T05:38:29.982Z,2.56
2023-03-11T05:39:29.968Z,2.60
2023-03-11T05:40:29.944Z,2.64
2023-03-11T05:41:29.956Z,2.78
2023-03-11T05:42:29.981Z,2.75
2023-03-11T05:43:29.920Z,2.77
2023-03-11T05:44:29.911Z,2.78
2023-03-11T05:45:30.891Z,2.90
2023-03-11T05:46:29.934Z,2.89
2023-03-11T05:47:29.938Z,2.78
2023-03-11T05:48:29.864Z,2.87
2023-03-11T05:49:29.864Z,2.82
2023-03-11T05:50:29.856Z,2.89
2023-03-11T05:51:29.845Z,2.89
2023-03-11T05:52:29.842Z,2.92
2023-03-11T05:53:29.864Z,2.84
2023-03-11T05:54:29.814Z,2.79
2023-03-11T05:55:29.807Z,2.79
2023-03-11T05:56:29.807Z,2.61
2023-03-11T05:57:29.773Z,2.72
2023-03-11T05:58:30.804Z,2.72
2023-03-11T05:59:29.769Z,2.72
2023-03-11T06:00:29.781Z,2.66
2023-03-11T06:01:29.753Z,2.74
2023-03-11T06:02:29.734Z,2.74
2023-03-11T06:03:29.739Z,2.74
2023-03-11T06:04:29.817Z,2.82
2023-03-11T06:05:29.812Z,2.82
2023-03-11T06:06:29.698Z,2.79
2023-03-11T06:07:29.684Z,2.85
2023-03-11T06:08:29.671Z,2.93
2023-03-11T06:09:29.690Z,2.79
2023-03-11T06:10:29.657Z,2.69
2023-03-11T06:11:29.662Z,2.72
2023-03-11T06:12:29.694Z,2.60
2023-03-11T06:13:29.623Z,2.61
2023-03-11T06:14:29.642Z,2.49
2023-03-11T06:15:29.615Z,2.56
2023-03-11T06:16:29.648Z,2.61
2023-03-11T06:17:30.567Z,2.77
2023-03-11T06:18:29.567Z,2.63
2023-03-11T06:19:29.572Z,2.54
2023-03-11T06:20:29.580Z,2.69
2023-03-11T06:21:29.552Z,2.66
2023-03-11T06:22:29.553Z,2.72
2023-03-11T06:23:29.527Z,2.71
2023-03-11T06:24:29.528Z,2.84
2023-03-11T06:25:29.512Z,2.87
2023-03-11T06:26:29.503Z,2.87
2023-03-11T06:27:29.491Z,2.90
2023-03-11T06:28:29.480Z,2.90
2023-03-11T06:29:29.493Z,2.90
2023-03-11T06:30:29.459Z,2.96
2023-03-11T06:31:29.487Z,2.97
2023-03-11T06:32:29.480Z,3.10
2023-03-11T06:33:29.460Z,2.97
2023-03-11T06:34:29.420Z,2.90
2023-03-11T06:35:29.449Z,2.90
2023-03-11T06:36:29.417Z,2.89
2023-03-11T06:37:29.389Z,2.92
2023-03-11T06:38:29.387Z,2.93
2023-03-11T06:39:29.398Z,2.90
2023-03-11T06:40:29.360Z,2.97
2023-03-11T06:41:29.346Z,3.02
2023-03-11T06:42:29.341Z,2.99
2023-03-11T06:43:29.347Z,2.96
2023-03-11T06:44:29.356Z,2.89
2023-03-11T06:45:29.348Z,3.03
2023-03-11T06:46:29.314Z,3.02
2023-03-11T06:47:29.298Z,3.10
2023-03-11T06:48:29.290Z,3.17
2023-03-11T06:49:29.296Z,3.18
2023-03-11T06:50:29.264Z,3.26
2023-03-11T06:51:29.264Z,3.21
2023-03-11T06:52:29.261Z,3.26
2023-03-11T06:53:29.246Z,3.33
2023-03-11T06:54:29.254Z,3.35
2023-03-11T06:55:29.213Z,3.40
2023-03-11T06:56:29.201Z,3.36
2023-03-11T06:57:29.213Z,3.26
2023-03-11T06:58:29.186Z,3.23
2023-03-11T06:59:29.206Z,3.29
2023-03-11T07:00:29.167Z,3.35
2023-03-11T07:01:29.221Z,3.21
2023-03-11T07:02:29.144Z,3.10
2023-03-11T07:03:29.136Z,3.11
2023-03-11T07:04:29.126Z,2.89
2023-03-11T07:05:30.126Z,2.95
2023-03-11T07:06:29.144Z,2.93
2023-03-11T07:07:29.115Z,2.90
2023-03-11T07:08:29.098Z,2.90
2023-03-11T07:09:29.088Z,2.99
2023-03-11T07:10:29.079Z,3.03
2023-03-11T07:11:29.094Z,2.99
2023-03-11T07:12:29.064Z,2.99
2023-03-11T07:13:29.041Z,3.05
2023-03-11T07:14:29.037Z,3.08
2023-03-11T07:15:29.047Z,3.14
2023-03-11T07:16:29.046Z,3.10
2023-03-11T07:17:29.045Z,3.11
2023-03-11T07:18:28.998Z,3.20
2023-03-11T07:19:28.997Z,3.31
2023-03-11T07:20:28.998Z,3.32
2023-03-11T07:21:28.962Z,3.23
2023-03-11T07:22:28.954Z,3.08
2023-03-11T07:23:28.950Z,3.06
2023-03-11T07:24:28.947Z,3.05
2023-03-11T07:25:28.932Z,3.21
2023-03-11T07:26:28.943Z,3.28
2023-03-11T07:27:28.934Z,3.24
2023-03-11T07:28:28.897Z,3.40
2023-03-11T07:29:28.893Z,3.40
2023-03-11T07:30:28.889Z,3.26
2023-03-11T07:31:28.920Z,3.29
2023-03-11T07:32:28.943Z,3.28
2023-03-11T07:33:28.854Z,3.42
2023-03-11T07:35:00.740Z,3.42
2023-03-11T07:35:28.825Z,3.42
2023-03-11T07:36:28.822Z,3.35
2023-03-11T07:37:28.827Z,3.43
2023-03-11T07:38:28.801Z,3.26
2023-03-11T07:39:28.792Z,3.35
2023-03-11T07:40:28.800Z,3.35
2023-03-11T07:41:28.758Z,3.43
2023-03-11T07:42:28.772Z,3.35
2023-03-11T07:43:28.753Z,3.31
2023-03-11T07:44:28.750Z,3.31
2023-03-11T07:45:28.770Z,3.51
2023-03-11T07:46:28.915Z,3.42
2023-03-11T07:47:28.710Z,3.42
2023-03-11T07:48:28.706Z,3.36
2023-03-11T07:49:28.685Z,3.55
2023-03-11T07:50:28.696Z,3.45
2023-03-11T07:51:28.684Z,3.47
2023-03-11T07:52:28.668Z,3.52
2023-03-11T07:53:28.656Z,3.62
2023-03-11T07:54:28.660Z,3.52
2023-03-11T07:55:28.665Z,3.54
2023-03-11T07:56:28.630Z,3.70
2023-03-11T07:57:28.619Z,3.76
2023-03-11T07:58:28.611Z,3.87
2023-03-11T07:59:28.603Z,4.00
2023-03-11T08:00:28.657Z,4.08
2023-03-11T08:01:28.584Z,4.29
2023-03-11T08:02:28.647Z,4.42
2023-03-11T08:03:28.611Z,4.47
2023-03-11T08:04:28.575Z,4.62
2023-03-11T08:05:28.540Z,4.50
2023-03-11T08:06:29.537Z,4.51
2023-03-11T08:07:28.541Z,4.41
2023-03-11T08:08:28.553Z,4.29
2023-03-11T08:09:28.506Z,4.27
2023-03-11T08:10:28.503Z,4.22
2023-03-11T08:11:28.494Z,4.23
2023-03-11T08:12:28.479Z,4.06
2023-03-11T08:13:28.484Z,4.04
2023-03-11T08:14:28.493Z,4.12
2023-03-11T08:15:28.481Z,3.96
2023-03-11T08:16:28.447Z,3.87
2023-03-11T08:17:28.432Z,4.48
2023-03-11T08:18:28.412Z,5.53
2023-03-11T08:19:28.421Z,6.40
2023-03-11T08:20:28.495Z,6.94
2023-03-11T08:21:28.383Z,6.98
2023-03-11T08:22:28.385Z,7.39
2023-03-11T08:23:28.359Z,7.35
2023-03-11T08:24:28.360Z,6.91
2023-03-11T08:25:28.392Z,6.54
2023-03-11T08:26:28.363Z,6.12
2023-03-11T08:27:28.339Z,5.99
2023-03-11T08:28:28.317Z,6.01
2023-03-11T08:29:28.320Z,6.43
2023-03-11T08:30:28.403Z,6.14
2023-03-11T08:31:28.370Z,6.67
2023-03-11T08:32:28.298Z,7.46
2023-03-11T08:33:28.264Z,7.75
2023-03-11T08:34:28.252Z,7.31
2023-03-11T08:35:28.291Z,7.46
2023-03-11T08:36:28.247Z,7.77
2023-03-11T08:37:28.249Z,8.04
2023-03-11T08:38:28.245Z,8.11
2023-03-11T08:39:28.219Z,8.10
2023-03-11T08:40:28.215Z,8.55
2023-03-11T08:41:28.214Z,8.48
2023-03-11T08:42:28.182Z,7.98
2023-03-11T08:43:28.187Z,7.60
2023-03-11T08:44:28.172Z,7.16
2023-03-11T08:45:28.180Z,6.85
2023-03-11T08:46:28.264Z,7.09
2023-03-11T08:47:28.138Z,6.76
2023-03-11T08:48:28.125Z,6.34
2023-03-11T08:49:28.111Z,5.86
2023-03-11T08:50:28.125Z,5.78
2023-03-11T08:51:28.104Z,5.67
2023-03-11T08:52:28.087Z,5.51
2023-03-11T08:53:28.086Z,5.42
2023-03-11T08:54:28.088Z,5.22
2023-03-11T08:55:28.073Z,5.22
2023-03-11T08:56:28.038Z,5.10
2023-03-11T08:57:28.038Z,5.04
2023-03-11T08:58:28.040Z,4.99
2023-03-11T08:59:28.034Z,4.86
2023-03-11T09:00:28.014Z,4.70
2023-03-11T09:01:28.020Z,4.65
2023-03-11T09:02:28.053Z,4.52
2023-03-11T09:03:27.975Z,4.78
2023-03-11T09:04:27.976Z,4.91
2023-03-11T09:05:27.972Z,5.27
2023-03-11T09:06:27.940Z,5.45
2023-03-11T09:07:28.962Z,5.17
2023-03-11T09:08:27.928Z,5.33
2023-03-11T09:09:27.929Z,5.67
2023-03-11T09:10:27.910Z,5.99
2023-03-11T09:11:27.909Z,6.38
2023-03-11T09:12:27.878Z,6.88
2023-03-11T09:13:27.869Z,7.28
2023-03-11T09:14:27.876Z,7.72
2023-03-11T09:15:27.874Z,8.38
2023-03-11T09:16:27.942Z,8.68
2023-03-11T09:17:27.827Z,9.05
2023-03-11T09:18:27.819Z,8.38
2023-03-11T09:19:27.845Z,7.82
2023-03-11T09:20:27.811Z,7.64
2023-03-11T09:21:27.790Z,7.05
2023-03-11T09:22:27.781Z,7.17
2023-03-11T09:23:27.788Z,7.03
2023-03-11T09:24:27.777Z,6.81
2023-03-11T09:25:27.780Z,6.59
2023-03-11T09:26:27.742Z,6.41
2023-03-11T09:27:27.738Z,6.11
2023-03-11T09:28:27.749Z,5.72
2023-03-11T09:29:27.708Z,5.79
2023-03-11T09:30:27.739Z,5.67
2023-03-11T09:31:27.769Z,5.35
2023-03-11T09:32:27.736Z,5.15
2023-03-11T09:33:27.689Z,5.13
2023-03-11T09:34:27.659Z,5.15
2023-03-11T09:35:27.730Z,5.21
2023-03-11T09:36:27.642Z,5.21
2023-03-11T09:37:27.665Z,5.20
2023-03-11T09:38:27.647Z,5.22
2023-03-11T09:39:27.639Z,5.42
2023-03-11T09:40:27.611Z,5.53
2023-03-11T09:41:27.646Z,5.58
2023-03-11T09:42:27.598Z,5.51
2023-03-11T09:43:27.572Z,5.53
2023-03-11T09:44:27.590Z,5.60
2023-03-11T09:45:27.580Z,5.71
2023-03-11T09:46:27.607Z,5.85
2023-03-11T09:47:27.556Z,5.91
2023-03-11T09:48:27.523Z,5.93
2023-03-11T09:49:27.538Z,6.14
2023-03-11T09:50:27.530Z,6.06
2023-03-11T09:51:27.538Z,6.38
2023-03-11T09:52:27.521Z,7.02
2023-03-11T09:53:27.488Z,7.35
2023-03-11T09:54:27.464Z,7.72
2023-03-11T09:55:27.470Z,7.79
2023-03-11T09:56:27.451Z,7.67
2023-03-11T09:57:27.444Z,7.60
2023-03-11T09:58:27.436Z,7.53
2023-03-11T09:59:27.414Z,7.28
2023-03-11T10:00:27.395Z,6.79
2023-03-11T10:01:27.389Z,6.66
2023-03-11T10:02:27.502Z,6.52
2023-03-11T10:03:27.364Z,6.41
2023-03-11T10:04:27.374Z,6.28
2023-03-11T10:05:27.361Z,6.34
2023-03-11T10:06:27.360Z,6.37
2023-03-11T10:07:27.355Z,6.21
2023-03-11T10:08:27.317Z,6.00
2023-03-11T10:09:27.308Z,6.11
2023-03-11T10:10:27.302Z,6.08
2023-03-11T10:11:27.283Z,6.06
2023-03-11T10:12:27.310Z,5.93
2023-03-11T10:13:27.280Z,6.04
2023-03-11T10:14:27.275Z,6.12
2023-03-11T10:15:27.240Z,6.04
2023-03-11T10:16:27.267Z,6.03
2023-03-11T10:17:27.247Z,5.94
2023-03-11T10:18:27.215Z,6.12
2023-03-11T10:19:27.222Z,6.04
2023-03-11T10:20:27.185Z,6.11
2023-03-11T10:21:27.177Z,6.12
2023-03-11T10:22:27.172Z,5.89
2023-03-11T10:23:27.182Z,5.93
2023-03-11T10:24:27.166Z,5.97
2023-03-11T10:25:27.186Z,6.03
2023-03-11T10:26:27.126Z,6.09
2023-03-11T10:27:27.105Z,6.14
2023-03-11T10:28:27.124Z,6.14
2023-03-11T10:29:27.097Z,6.06
2023-03-11T10:30:27.102Z,5.90
2023-03-11T10:31:27.128Z,5.99
2023-03-11T10:32:27.084Z,5.93
2023-03-11T10:33:27.107Z,5.99
2023-03-11T10:34:27.050Z,5.91
2023-03-11T10:35:27.039Z,6.09
2023-03-11T10:36:27.096Z,6.09
2023-03-11T10:37:33.191Z,6.19
2023-03-11T10:38:29.027Z,6.27
2023-03-11T10:39:27.020Z,6.03
2023-03-11T10:40:27.001Z,5.94
2023-03-11T10:41:26.992Z,5.76
2023-03-11T10:42:27.010Z,5.89
2023-03-11T10:43:26.959Z,5.90
2023-03-11T10:44:26.977Z,5.97
2023-03-11T10:45:26.985Z,6.09
2023-03-11T10:46:26.930Z,6.12
2023-03-11T10:47:26.962Z,6.09
2023-03-11T10:48:26.917Z,6.14
2023-03-11T10:49:26.898Z,6.19
2023-03-11T10:50:26.905Z,6.43
2023-03-11T10:51:26.965Z,6.55
2023-03-11T10:52:26.884Z,6.58
2023-03-11T10:53:26.855Z,6.52
2023-03-11T10:54:27.869Z,6.55
2023-03-11T10:55:26.840Z,6.41
2023-03-11T10:56:26.861Z,6.48
2023-03-11T10:57:26.831Z,6.46
2023-03-11T10:58:26.836Z,6.56
2023-03-11T10:59:26.820Z,6.61
2023-03-11T11:00:26.808Z,6.59
2023-03-11T11:01:26.901Z,6.64
2023-03-11T11:02:26.812Z,6.46
2023-03-11T11:03:26.778Z,6.66
2023-03-11T11:04:26.799Z,6.70
2023-03-11T11:05:26.750Z,6.77
2023-03-11T11:06:26.776Z,6.77
2023-03-11T11:07:26.762Z,6.61
2023-03-11T11:08:26.739Z,6.40
2023-03-11T11:09:27.134Z,6.31
2023-03-11T11:10:27.716Z,6.30
2023-03-11T11:11:26.696Z,6.41
2023-03-11T11:12:26.674Z,6.22
2023-03-11T11:13:26.679Z,6.22
2023-03-11T11:14:26.668Z,6.33
2023-03-11T11:15:26.690Z,5.99
2023-03-11T11:16:26.669Z,5.90
2023-03-11T11:17:26.641Z,5.97
2023-03-11T11:18:26.631Z,6.08
2023-03-11T11:19:26.614Z,5.97
2023-03-11T11:20:26.681Z,5.94
2023-03-11T11:21:26.594Z,6.09
2023-03-11T11:22:26.628Z,6.36
2023-03-11T11:23:26.568Z,6.66
2023-03-11T11:24:26.581Z,6.91
2023-03-11T11:25:26.589Z,7.16
2023-03-11T11:26:26.552Z,7.09
2023-03-11T11:27:26.526Z,7.05
2023-03-11T11:28:26.531Z,6.69
2023-03-11T11:29:26.551Z,6.61
2023-03-11T11:30:26.530Z,6.66
2023-03-11T11:31:26.504Z,6.41
2023-03-11T11:32:26.505Z,6.33
2023-03-11T11:33:26.480Z,6.31
2023-03-11T11:34:26.463Z,6.22
2023-03-11T11:35:26.494Z,6.31
2023-03-11T11:36:26.426Z,6.34
2023-03-11T11:37:26.421Z,6.37
2023-03-11T11:38:26.429Z,6.22
2023-03-11T11:39:26.399Z,6.36
2023-03-11T11:40:26.412Z,6.54
2023-03-11T11:41:26.388Z,6.59
2023-03-11T11:42:26.374Z,6.61
2023-03-11T11:43:26.383Z,6.77
2023-03-11T11:44:26.349Z,6.66
2023-03-11T11:45:26.368Z,6.73
2023-03-11T11:46:26.424Z,6.56
2023-03-11T11:47:26.321Z,6.43
2023-03-11T11:48:26.308Z,6.44
2023-03-11T11:49:26.324Z,6.33
2023-03-11T11:50:26.321Z,6.27
2023-03-11T11:51:26.324Z,5.94
2023-03-11T11:52:26.284Z,5.81
2023-03-11T11:53:26.260Z,5.89
2023-03-11T11:54:26.296Z,5.78
2023-03-11T11:55:26.256Z,5.83
2023-03-11T11:56:26.246Z,5.85
2023-03-11T11:57:26.257Z,5.89
2023-03-11T11:58:26.221Z,5.78
2023-03-11T11:59:26.251Z,5.86
2023-03-11T12:00:26.205Z,5.89
2023-03-11T12:01:26.201Z,6.00
2023-03-11T12:02:26.254Z,5.97
2023-03-11T12:03:26.195Z,5.93
2023-03-11T12:04:26.169Z,6.11
2023-03-11T12:05:26.200Z,6.06
2023-03-11T12:06:26.163Z,6.41
2023-03-11T12:07:26.121Z,6.43
2023-03-11T12:08:26.168Z,6.56
2023-03-11T12:09:26.146Z,6.62
2023-03-11T12:10:26.148Z,6.61
2023-03-11T12:11:26.106Z,6.76
2023-03-11T12:12:26.090Z,6.76
2023-03-11T12:13:27.105Z,6.76
2023-03-11T12:14:26.100Z,6.76
2023-03-11T12:15:26.053Z,6.73
2023-03-11T12:16:26.091Z,6.79
2023-03-11T12:17:26.045Z,6.70
2023-03-11T12:18:26.030Z,6.64
2023-03-11T12:19:26.017Z,6.69
2023-03-11T12:20:26.011Z,6.71
2023-03-11T12:21:26.032Z,6.46
2023-03-11T12:22:25.977Z,6.41
2023-03-11T12:23:26.002Z,6.30
2023-03-11T12:24:26.025Z,6.19
2023-03-11T12:25:26.018Z,6.01
2023-03-11T12:26:25.950Z,5.93
2023-03-11T12:27:25.958Z,5.86
2023-03-11T12:28:25.931Z,5.90
2023-03-11T12:29:25.960Z,5.63
2023-03-11T12:30:25.916Z,5.54
2023-03-11T12:31:27.035Z,5.46
2023-03-11T12:32:25.961Z,5.46
2023-03-11T12:33:25.894Z,5.53
2023-03-11T12:34:25.887Z,5.42
2023-03-11T12:35:25.867Z,5.56
2023-03-11T12:36:25.854Z,5.49
2023-03-11T12:37:25.862Z,5.51
2023-03-11T12:38:25.850Z,5.53
2023-03-11T12:39:25.822Z,5.74
2023-03-11T12:40:25.820Z,5.85
2023-03-11T12:41:25.811Z,5.79
2023-03-11T12:42:25.812Z,5.74
2023-03-11T12:43:25.768Z,5.72
2023-03-11T12:44:25.776Z,5.74
2023-03-11T12:45:25.777Z,5.90
2023-03-11T12:46:25.846Z,5.86
2023-03-11T12:47:25.769Z,5.93
2023-03-11T12:48:25.722Z,5.78
2023-03-11T12:49:25.720Z,5.76
2023-03-11T12:50:25.713Z,5.85
2023-03-11T12:51:25.727Z,5.90
2023-03-11T12:52:25.719Z,6.00
2023-03-11T12:53:25.692Z,6.03
2023-03-11T12:54:25.702Z,6.03
2023-03-11T12:55:25.676Z,6.08
2023-03-11T12:56:25.652Z,6.09
2023-03-11T12:57:25.693Z,6.27
2023-03-11T12:58:25.620Z,6.28
2023-03-11T12:59:25.614Z,6.33
2023-03-11T13:00:25.634Z,6.37
2023-03-11T13:01:25.636Z,6.54
2023-03-11T13:02:25.595Z,6.43
2023-03-11T13:03:25.599Z,6.44
2023-03-11T13:04:25.613Z,6.38
2023-03-11T13:05:25.580Z,6.25
2023-03-11T13:06:25.546Z,6.19
2023-03-11T13:07:25.536Z,6.22
2023-03-11T13:08:25.597Z,6.25
2023-03-11T13:09:25.538Z,6.25
2023-03-11T13:10:25.533Z,6.11
2023-03-11T13:11:25.587Z,6.06
2023-03-11T13:12:25.503Z,6.08
2023-03-11T13:13:25.496Z,6.28
2023-03-11T13:14:25.536Z,6.15
2023-03-11T13:15:25.468Z,6.08
2023-03-11T13:16:25.517Z,6.08
2023-03-11T13:17:25.494Z,6.03
2023-03-11T13:18:25.426Z,5.99